Etusivu
METAR-TAF:

METAR-TAF

Lentoasemat :

Baudette, Minnesota, Yhdysvallat

Leveyspiiri: 48-43-36N, Pituuspiiri: 094-36-44W, korkeus merenpinnasta: 330 m

Tämänhetkinen sää

Tämä raportti tehtiin 35 minuuttia sitten, kello 07.53 UTC
Tuuli 5 kn luoteesta
Lämpötila -11°C
Kosteus 92%
Ilmanpaine 1024 hPa
Näkyvyys: 16.1 km
Muutamia pilviä 3600 ft:n korkeudessa

METAR: KBDE 250753Z AUTO 31005KT 10SM FEW036 M11/M12 A3023 RMK AO2 SLP258 I1000 T11111122

Aika: 02:28 (08:28 UTC)


TAF: puuttuu

Säähavainnot ja -ennusteet yli 4000 lentoasemalta (METAR- ja TAF-raportit).

Käytössä olevat sääasemat on merkitty karttaan keltaisilla ja punaisilla pisteillä.

Aseta hiiri pisteen päälle nähdäksesi sääaseman nimen.

Klikkaa sitten nähdäksesi säähavainnot ja -ennusteet.

Kartan vaihtaminen: klikkaa mustalla rastilla varustettuja vihreitä pisteitä, niin voit zoomata sisään; viivalla varustettua vihreää pistettä, niin voit zoomata ulos tai vihreitä nuolia, niin pääset viereisille kartoille.


METAR-TAF: